createdAt,value
2023-05-25T00:02:06.381Z,14.43
2023-05-25T00:04:34.783Z,13.63
2023-05-25T00:07:02.751Z,14.48
2023-05-25T00:09:31.720Z,13.32
2023-05-25T00:11:59.850Z,14.55
2023-05-25T00:14:27.516Z,14.68
2023-05-25T00:16:55.346Z,14.50
2023-05-25T00:19:23.250Z,13.35
2023-05-25T00:21:51.235Z,14.02
2023-05-25T00:24:18.884Z,13.20
2023-05-25T00:26:48.060Z,13.88
2023-05-25T00:29:15.821Z,13.82
2023-05-25T00:31:43.466Z,13.50
2023-05-25T00:34:11.162Z,13.02
2023-05-25T00:36:38.791Z,14.07
2023-05-25T00:39:06.445Z,13.73
2023-05-25T00:41:34.885Z,14.38
2023-05-25T00:44:04.077Z,12.35
2023-05-25T00:46:34.327Z,13.80
2023-05-25T00:49:02.090Z,13.27
2023-05-25T00:51:32.972Z,12.52
2023-05-25T00:54:00.638Z,13.55
2023-05-25T00:56:31.822Z,13.05
2023-05-25T00:59:06.138Z,13.27
2023-05-25T01:01:39.977Z,13.13
2023-05-25T01:04:09.596Z,13.60
2023-05-25T01:06:38.045Z,12.90
2023-05-25T01:09:07.013Z,14.00
2023-05-25T01:11:37.442Z,13.43
2023-05-25T01:14:07.318Z,12.65
2023-05-25T01:16:35.087Z,13.60
2023-05-25T01:19:02.919Z,12.90
2023-05-25T01:21:37.983Z,14.05
2023-05-25T01:24:12.033Z,14.02
2023-05-25T01:26:43.837Z,14.57
2023-05-25T01:29:12.508Z,13.10
2023-05-25T01:31:40.510Z,14.85
2023-05-25T01:34:08.657Z,12.82
2023-05-25T01:36:37.727Z,13.00
2023-05-25T01:39:06.498Z,13.02
2023-05-25T01:41:34.180Z,14.20
2023-05-25T01:44:01.755Z,13.48
2023-05-25T01:46:35.488Z,13.65
2023-05-25T01:49:12.630Z,12.80
2023-05-25T01:51:49.198Z,13.02
2023-05-25T01:54:20.143Z,14.25
2023-05-25T01:56:49.054Z,13.45
2023-05-25T01:59:19.929Z,13.55
2023-05-25T02:01:49.210Z,12.75
2023-05-25T02:04:18.610Z,14.35
2023-05-25T02:06:50.652Z,12.38
2023-05-25T02:09:18.324Z,13.77
2023-05-25T02:11:46.067Z,13.15
2023-05-25T02:14:13.707Z,14.02
2023-05-25T02:16:41.320Z,14.13
2023-05-25T02:19:08.892Z,13.77
2023-05-25T02:21:37.675Z,13.48
2023-05-25T02:24:09.451Z,15.10
2023-05-25T02:26:37.131Z,12.85
2023-05-25T02:29:05.420Z,13.13
2023-05-25T02:31:33.187Z,12.93
2023-05-25T02:34:00.833Z,13.15
2023-05-25T02:36:28.476Z,13.45
2023-05-25T02:38:56.077Z,14.30
2023-05-25T02:41:26.370Z,14.02
2023-05-25T02:43:54.310Z,12.95
2023-05-25T02:46:22.914Z,13.05
2023-05-25T02:48:51.572Z,12.90
2023-05-25T02:51:19.313Z,13.18
2023-05-25T02:53:46.888Z,13.45
2023-05-25T02:56:14.492Z,13.88
2023-05-25T02:58:43.577Z,12.82
2023-05-25T03:01:18.229Z,13.13
2023-05-25T03:03:47.026Z,13.40
2023-05-25T03:06:16.048Z,13.55
2023-05-25T03:08:43.656Z,12.48
2023-05-25T03:11:11.281Z,14.10
2023-05-25T03:13:38.878Z,15.52
2023-05-25T03:16:08.464Z,13.50
2023-05-25T03:18:36.128Z,14.00
2023-05-25T03:21:03.739Z,12.95
2023-05-25T03:23:31.343Z,12.45
2023-05-25T03:25:59.072Z,13.68
2023-05-25T03:28:26.689Z,13.70
2023-05-25T03:30:54.270Z,13.60
2023-05-25T03:33:23.289Z,14.00
2023-05-25T03:35:50.881Z,14.20
2023-05-25T03:38:18.499Z,13.27
2023-05-25T03:40:46.137Z,15.50
2023-05-25T03:43:13.889Z,13.82
2023-05-25T03:45:41.627Z,13.25
2023-05-25T03:48:09.310Z,13.88
2023-05-25T03:50:40.057Z,13.52
2023-05-25T03:53:08.643Z,14.02
2023-05-25T03:55:36.302Z,13.98
2023-05-25T03:58:03.914Z,15.23
2023-05-25T04:00:31.532Z,14.98
2023-05-25T04:02:59.522Z,15.07
2023-05-25T04:05:27.584Z,14.98
2023-05-25T04:07:57.573Z,14.55
2023-05-25T04:10:25.313Z,14.15
2023-05-25T04:12:56.634Z,13.68
2023-05-25T04:15:25.092Z,15.23
2023-05-25T04:17:52.748Z,14.75
2023-05-25T04:20:20.586Z,14.18
2023-05-25T04:22:48.283Z,15.73
2023-05-25T04:25:19.869Z,13.50
2023-05-25T04:27:47.658Z,16.88
2023-05-25T04:30:15.715Z,14.88
2023-05-25T04:32:45.780Z,15.10
2023-05-25T04:35:14.555Z,17.23
2023-05-25T04:37:42.255Z,15.77
2023-05-25T04:40:11.661Z,16.67
2023-05-25T04:42:40.809Z,16.58
2023-05-25T04:45:10.206Z,17.00
2023-05-25T04:47:41.063Z,16.75
2023-05-25T04:50:10.207Z,16.60
2023-05-25T04:52:37.866Z,16.98
2023-05-25T04:55:05.988Z,16.15
2023-05-25T04:57:33.610Z,17.52
2023-05-25T05:00:02.569Z,18.27
2023-05-25T05:02:30.181Z,17.42
2023-05-25T05:04:57.779Z,16.58
2023-05-25T05:07:25.594Z,17.35
2023-05-25T05:09:53.217Z,17.65
2023-05-25T05:12:20.891Z,17.33
2023-05-25T05:14:48.536Z,17.50
2023-05-25T05:17:18.539Z,18.77
2023-05-25T05:19:46.136Z,19.25
2023-05-25T05:22:15.932Z,19.23
2023-05-25T05:24:43.664Z,20.08
2023-05-25T05:27:12.191Z,21.75
2023-05-25T05:29:39.830Z,21.58
2023-05-25T05:32:07.952Z,21.23
2023-05-25T05:34:37.578Z,23.27
2023-05-25T05:37:05.436Z,22.88
2023-05-25T05:39:33.064Z,24.48
2023-05-25T05:42:01.439Z,21.58
2023-05-25T05:44:29.614Z,23.50
2023-05-25T05:47:00.293Z,24.02
2023-05-25T05:49:28.657Z,25.50
2023-05-25T05:51:57.713Z,25.13
2023-05-25T05:54:25.363Z,25.25
2023-05-25T05:56:53.405Z,24.08
2023-05-25T05:59:22.378Z,26.95
2023-05-25T06:01:50.113Z,24.13
2023-05-25T06:04:19.589Z,24.58
2023-05-25T06:06:47.306Z,24.25
2023-05-25T06:09:16.443Z,25.90
2023-05-25T06:11:44.062Z,24.63
2023-05-25T06:14:11.806Z,24.95
2023-05-25T06:16:39.481Z,26.45
2023-05-25T06:19:07.180Z,24.63
2023-05-25T06:21:34.806Z,24.27
2023-05-25T06:24:02.520Z,23.48
2023-05-25T06:26:31.841Z,23.67
2023-05-25T06:28:59.487Z,23.85
2023-05-25T06:31:27.147Z,23.88
2023-05-25T06:33:54.851Z,23.70
2023-05-25T06:36:22.668Z,22.95
2023-05-25T06:38:50.331Z,22.25
2023-05-25T06:41:19.034Z,23.42
2023-05-25T06:43:48.196Z,22.08
2023-05-25T06:46:18.328Z,22.52
2023-05-25T06:48:46.507Z,22.85
2023-05-25T06:51:14.432Z,21.63
2023-05-25T06:53:42.076Z,21.02
2023-05-25T06:56:09.671Z,21.60
2023-05-25T06:58:37.338Z,21.38
2023-05-25T07:01:07.073Z,22.27
2023-05-25T07:03:34.764Z,21.65
2023-05-25T07:06:02.398Z,22.02
2023-05-25T07:08:30.061Z,21.27
2023-05-25T07:10:57.851Z,21.25
2023-05-25T07:13:25.696Z,20.27
2023-05-25T07:15:53.641Z,20.67
2023-05-25T07:18:22.647Z,20.58
2023-05-25T07:20:51.508Z,20.45
2023-05-25T07:23:19.153Z,21.25
2023-05-25T07:25:47.010Z,19.17
2023-05-25T07:28:14.863Z,19.88
2023-05-25T07:30:42.529Z,20.00
2023-05-25T07:33:10.205Z,21.00
2023-05-25T07:35:39.284Z,21.52
2023-05-25T07:38:06.983Z,21.27
2023-05-25T07:40:34.607Z,21.17
2023-05-25T07:43:02.382Z,19.50
2023-05-25T07:45:30.037Z,21.30
2023-05-25T07:47:57.719Z,21.25
2023-05-25T07:50:25.413Z,19.80
2023-05-25T07:52:54.369Z,20.38
2023-05-25T07:55:21.996Z,20.67
2023-05-25T07:57:49.649Z,19.58
2023-05-25T08:00:18.028Z,20.77
2023-05-25T08:02:45.933Z,20.00
2023-05-25T08:05:13.965Z,19.40
2023-05-25T08:07:42.920Z,20.60
2023-05-25T08:10:12.704Z,19.42
2023-05-25T08:12:48.767Z,21.58
2023-05-25T08:15:17.744Z,20.08
2023-05-25T08:17:45.722Z,20.08
2023-05-25T08:20:13.775Z,20.92
2023-05-25T08:22:41.431Z,21.65
2023-05-25T08:25:09.485Z,21.60
2023-05-25T08:27:38.415Z,22.10
2023-05-25T08:30:07.222Z,20.60
2023-05-25T08:32:34.976Z,20.92
2023-05-25T08:35:03.363Z,21.73
2023-05-25T08:37:32.627Z,20.45
2023-05-25T08:40:02.220Z,19.95
2023-05-25T08:42:29.926Z,20.23
2023-05-25T08:44:59.057Z,20.10
2023-05-25T08:47:33.058Z,21.60
2023-05-25T08:50:01.850Z,20.10
2023-05-25T08:52:32.367Z,20.55
2023-05-25T08:55:03.884Z,21.30
2023-05-25T08:57:36.049Z,21.08
2023-05-25T09:02:41.009Z,20.65
2023-05-25T09:05:09.570Z,20.25
2023-05-25T09:07:37.412Z,21.45
2023-05-25T09:10:06.036Z,21.77
2023-05-25T09:12:33.674Z,21.83
2023-05-25T09:15:01.448Z,20.13
2023-05-25T09:17:30.570Z,21.35
2023-05-25T09:19:58.341Z,21.05
2023-05-25T09:22:26.124Z,21.25
2023-05-25T09:24:55.086Z,20.25
2023-05-25T09:27:23.933Z,21.27
2023-05-25T09:29:52.441Z,22.33
2023-05-25T09:32:20.494Z,20.73
2023-05-25T09:34:49.507Z,20.13
2023-05-25T09:37:19.205Z,22.35
2023-05-25T09:39:47.871Z,20.35
2023-05-25T09:42:15.704Z,20.42
2023-05-25T09:44:43.663Z,21.13
2023-05-25T09:47:13.301Z,21.38
2023-05-25T09:49:41.886Z,21.67
2023-05-25T09:52:10.871Z,18.67
2023-05-25T09:54:39.177Z,18.85
2023-05-25T09:57:07.271Z,19.85
2023-05-25T09:59:34.930Z,20.80
2023-05-25T10:02:02.723Z,19.98
2023-05-25T10:04:30.627Z,20.83
2023-05-25T10:06:58.575Z,20.50
2023-05-25T10:09:29.261Z,20.88
2023-05-25T10:11:58.341Z,20.83
2023-05-25T10:14:29.723Z,21.30
2023-05-25T10:16:59.507Z,22.15
2023-05-25T10:19:33.194Z,19.95
2023-05-25T10:22:08.092Z,19.92
2023-05-25T10:24:42.113Z,21.05
2023-05-25T10:27:25.657Z,19.65
2023-05-25T10:29:56.352Z,20.65
2023-05-25T10:32:24.322Z,19.65
2023-05-25T10:34:53.741Z,19.33
2023-05-25T10:37:21.958Z,19.88
2023-05-25T10:39:51.170Z,19.55
2023-05-25T10:42:19.792Z,20.00
2023-05-25T10:44:47.739Z,19.98
2023-05-25T10:47:16.501Z,20.65
2023-05-25T10:49:54.937Z,19.60
2023-05-25T10:52:23.215Z,19.38
2023-05-25T10:54:56.981Z,20.42
2023-05-25T10:57:26.094Z,19.35
2023-05-25T10:59:59.648Z,20.60
2023-05-25T11:02:29.239Z,19.45
2023-05-25T11:05:30.641Z,18.90
2023-05-25T11:07:59.026Z,19.90
2023-05-25T11:10:54.122Z,19.35
2023-05-25T11:13:24.392Z,18.17
2023-05-25T11:16:13.807Z,19.63
2023-05-25T11:18:43.695Z,18.67
2023-05-25T11:21:16.043Z,19.90
2023-05-25T11:23:57.741Z,18.60
2023-05-25T11:26:28.193Z,18.95
2023-05-25T11:28:58.846Z,19.90
2023-05-25T11:31:31.923Z,19.95
2023-05-25T11:34:02.656Z,19.60
2023-05-25T11:36:31.598Z,19.65
2023-05-25T11:39:04.929Z,19.00
2023-05-25T11:41:38.533Z,19.60
2023-05-25T11:44:07.010Z,19.80
2023-05-25T11:46:35.621Z,19.15
2023-05-25T11:49:03.300Z,19.70
2023-05-25T11:51:35.487Z,19.95
2023-05-25T11:56:36.022Z,18.88
2023-05-25T11:59:09.160Z,19.70
2023-05-25T12:01:38.627Z,18.30
2023-05-25T12:04:10.135Z,20.17
2023-05-25T12:06:38.650Z,19.58
2023-05-25T12:09:12.868Z,19.80
2023-05-25T12:11:45.342Z,18.33
2023-05-25T12:14:15.287Z,18.55
2023-05-25T12:16:43.574Z,19.10
2023-05-25T12:19:12.430Z,19.40
2023-05-25T12:21:43.032Z,18.33
2023-05-25T12:24:12.818Z,18.35
2023-05-25T12:26:50.605Z,19.25
2023-05-25T12:29:19.937Z,18.73
2023-05-25T12:31:47.895Z,19.77
2023-05-25T12:34:17.347Z,19.60
2023-05-25T12:36:53.474Z,18.65
2023-05-25T12:39:34.828Z,19.40
2023-05-25T12:42:14.048Z,18.03
2023-05-25T12:44:43.532Z,20.17
2023-05-25T12:47:13.321Z,18.13
2023-05-25T12:49:42.555Z,19.35
2023-05-25T12:52:11.152Z,19.77
2023-05-25T12:54:44.127Z,19.17
2023-05-25T12:57:13.283Z,19.23
2023-05-25T12:59:43.222Z,21.23
2023-05-25T13:02:11.940Z,18.95
2023-05-25T13:04:40.792Z,20.55
2023-05-25T13:07:10.012Z,20.48
2023-05-25T13:09:38.273Z,19.95
2023-05-25T13:12:07.002Z,18.70
2023-05-25T13:14:34.661Z,20.15
2023-05-25T13:17:03.580Z,20.63
2023-05-25T13:19:31.359Z,19.08
2023-05-25T13:21:58.949Z,19.45
2023-05-25T13:24:26.556Z,19.58
2023-05-25T13:26:54.890Z,19.75
2023-05-25T13:29:23.872Z,19.73
2023-05-25T13:31:51.532Z,21.17
2023-05-25T13:34:20.500Z,20.77
2023-05-25T13:36:48.651Z,21.33
2023-05-25T13:39:16.291Z,23.52
2023-05-25T13:41:43.927Z,22.80
2023-05-25T13:44:14.556Z,22.77
2023-05-25T13:46:43.537Z,23.60
2023-05-25T13:49:11.843Z,22.10
2023-05-25T13:51:41.406Z,20.75
2023-05-25T13:54:09.062Z,20.75
2023-05-25T13:56:36.769Z,23.00
2023-05-25T13:59:04.402Z,22.85
2023-05-25T14:01:33.066Z,22.02
2023-05-25T14:04:00.993Z,21.40
2023-05-25T14:06:28.912Z,21.52
2023-05-25T14:08:58.199Z,21.15
2023-05-25T14:11:28.584Z,20.98
2023-05-25T14:13:56.555Z,21.23
2023-05-25T14:16:24.259Z,20.55
2023-05-25T14:18:52.064Z,21.60
2023-05-25T14:21:19.701Z,19.15
2023-05-25T14:23:47.366Z,20.25
2023-05-25T14:26:16.353Z,20.50
2023-05-25T14:28:44.014Z,20.30
2023-05-25T14:31:12.969Z,20.17
2023-05-25T14:33:42.868Z,19.92
2023-05-25T14:36:10.770Z,20.10
2023-05-25T14:38:38.447Z,19.88
2023-05-25T14:41:06.226Z,20.42
2023-05-25T14:43:35.597Z,19.20
2023-05-25T14:46:03.189Z,20.80
2023-05-25T14:48:30.825Z,19.10
2023-05-25T14:51:00.161Z,20.52
2023-05-25T14:53:27.755Z,22.83
2023-05-25T14:55:55.341Z,22.33
2023-05-25T14:58:23.045Z,21.50
2023-05-25T15:00:51.995Z,22.55
2023-05-25T15:03:19.711Z,22.38
2023-05-25T15:05:47.550Z,23.20
2023-05-25T15:08:15.350Z,21.20
2023-05-25T15:10:42.928Z,22.08
2023-05-25T15:13:13.085Z,22.70
2023-05-25T15:15:41.768Z,21.70
2023-05-25T15:18:10.830Z,23.88
2023-05-25T15:20:38.599Z,23.23
2023-05-25T15:23:06.320Z,23.15
2023-05-25T15:25:35.631Z,21.40
2023-05-25T15:28:04.324Z,21.73
2023-05-25T15:30:33.215Z,20.77
2023-05-25T15:33:01.000Z,19.65
2023-05-25T15:35:32.364Z,23.38
2023-05-25T15:38:01.075Z,22.63
2023-05-25T15:40:29.127Z,21.90
2023-05-25T15:42:56.739Z,20.45
2023-05-25T15:45:24.968Z,21.35
2023-05-25T15:47:52.589Z,20.90
2023-05-25T15:50:20.318Z,20.35
2023-05-25T15:52:49.284Z,19.52
2023-05-25T15:55:16.926Z,20.88
2023-05-25T15:57:44.547Z,20.20
2023-05-25T16:00:13.603Z,19.80
2023-05-25T16:02:41.244Z,19.95
2023-05-25T16:05:09.723Z,19.50
2023-05-25T16:07:37.303Z,19.52
2023-05-25T16:10:07.333Z,18.42
2023-05-25T16:12:49.033Z,18.75
2023-05-25T16:15:17.451Z,19.85
2023-05-25T16:17:45.941Z,20.42
2023-05-25T16:20:14.020Z,19.67
2023-05-25T16:22:42.227Z,18.90
2023-05-25T16:25:11.703Z,20.27
2023-05-25T16:27:39.452Z,18.20
2023-05-25T16:30:08.882Z,18.42
2023-05-25T16:32:37.859Z,18.77
2023-05-25T16:35:06.155Z,18.58
2023-05-25T16:37:33.921Z,17.73
2023-05-25T16:40:01.642Z,18.23
2023-05-25T16:42:31.820Z,18.50
2023-05-25T16:44:59.426Z,19.15
2023-05-25T16:47:27.091Z,18.23
2023-05-25T16:49:54.752Z,19.25
2023-05-25T16:52:22.404Z,18.98
2023-05-25T16:54:50.046Z,17.27
2023-05-25T16:57:17.677Z,17.13
2023-05-25T16:59:46.667Z,17.45
2023-05-25T17:02:14.395Z,18.58
2023-05-25T17:04:42.034Z,18.13
2023-05-25T17:07:09.852Z,19.50
2023-05-25T17:09:37.762Z,17.30
2023-05-25T17:12:06.548Z,18.90
2023-05-25T17:14:34.239Z,18.40
2023-05-25T17:17:03.336Z,17.73
2023-05-25T17:19:31.166Z,18.23
2023-05-25T17:21:58.940Z,17.83
2023-05-25T17:24:26.691Z,18.00
2023-05-25T17:26:54.566Z,17.08
2023-05-25T17:29:22.247Z,17.83
2023-05-25T17:31:50.233Z,17.35
2023-05-25T17:34:19.479Z,17.42
2023-05-25T17:36:48.125Z,17.88
2023-05-25T17:39:15.811Z,17.27
2023-05-25T17:41:45.420Z,17.95
2023-05-25T17:44:13.128Z,17.25
2023-05-25T17:46:40.853Z,17.25
2023-05-25T17:49:08.512Z,17.83
2023-05-25T17:51:42.645Z,16.70
2023-05-25T17:57:00.915Z,17.55
2023-05-25T17:59:28.631Z,18.58
2023-05-25T18:01:56.317Z,17.30
2023-05-25T18:04:23.986Z,17.42
2023-05-25T18:06:52.944Z,17.70
2023-05-25T18:09:20.769Z,17.45
2023-05-25T18:11:48.691Z,18.50
2023-05-25T18:14:16.315Z,18.30
2023-05-25T18:16:44.823Z,17.40
2023-05-25T18:19:14.722Z,17.35
2023-05-25T18:21:42.337Z,16.90
2023-05-25T18:24:11.900Z,17.45
2023-05-25T18:26:41.588Z,17.20
2023-05-25T18:29:09.686Z,18.30
2023-05-25T18:31:37.380Z,17.88
2023-05-25T18:34:06.743Z,16.95
2023-05-25T18:36:34.364Z,18.55
2023-05-25T18:39:01.966Z,18.25
2023-05-25T18:41:31.043Z,17.67
2023-05-25T18:43:58.697Z,17.83
2023-05-25T18:46:27.717Z,19.25
2023-05-25T18:48:55.709Z,18.48
2023-05-25T18:51:25.797Z,17.95
2023-05-25T18:53:53.565Z,17.92
2023-05-25T18:56:21.372Z,17.13
2023-05-25T18:58:52.102Z,17.45
2023-05-25T19:01:19.822Z,17.45
2023-05-25T19:03:47.586Z,18.83
2023-05-25T19:06:15.246Z,17.73
2023-05-25T19:08:42.883Z,18.33
2023-05-25T19:11:10.485Z,18.27
2023-05-25T19:13:38.084Z,18.25
2023-05-25T19:16:07.290Z,18.45
2023-05-25T19:18:34.909Z,18.85
2023-05-25T19:21:02.559Z,18.20
2023-05-25T19:23:30.176Z,19.50
2023-05-25T19:25:57.821Z,18.33
2023-05-25T19:28:25.667Z,18.85
2023-05-25T19:30:53.298Z,18.52
2023-05-25T19:33:22.243Z,18.08
2023-05-25T19:35:49.833Z,17.92
2023-05-25T19:38:17.479Z,18.38
2023-05-25T19:40:45.097Z,18.05
2023-05-25T19:43:12.696Z,18.33
2023-05-25T19:45:40.409Z,18.73
2023-05-25T19:48:08.104Z,17.67
2023-05-25T19:50:37.052Z,17.58
2023-05-25T19:53:04.702Z,19.45
2023-05-25T19:55:33.620Z,19.75
2023-05-25T19:58:01.285Z,18.30
2023-05-25T20:00:28.964Z,18.38
2023-05-25T20:02:56.742Z,18.23
2023-05-25T20:05:24.467Z,18.38
2023-05-25T20:07:53.666Z,18.75
2023-05-25T20:10:21.525Z,18.58
2023-05-25T20:12:49.606Z,17.70
2023-05-25T20:15:17.610Z,18.65
2023-05-25T20:17:45.587Z,18.83
2023-05-25T20:20:13.602Z,20.02
2023-05-25T20:22:41.539Z,18.20
2023-05-25T20:25:10.855Z,18.92
2023-05-25T20:27:38.640Z,18.65
2023-05-25T20:30:07.679Z,20.52
2023-05-25T20:32:35.471Z,19.67
2023-05-25T20:35:03.459Z,20.05
2023-05-25T20:37:31.277Z,19.88
2023-05-25T20:39:59.137Z,18.75
2023-05-25T20:42:28.345Z,18.88
2023-05-25T20:44:56.173Z,19.23
2023-05-25T20:47:23.968Z,19.33
2023-05-25T20:49:51.702Z,19.55
2023-05-25T20:52:21.111Z,20.17
2023-05-25T20:54:48.826Z,19.95
2023-05-25T20:57:16.748Z,19.23
2023-05-25T20:59:46.224Z,19.00
2023-05-25T21:02:13.939Z,18.95
2023-05-25T21:04:41.593Z,18.73
2023-05-25T21:07:09.313Z,18.05
2023-05-25T21:09:36.962Z,20.27
2023-05-25T21:12:04.918Z,20.30
2023-05-25T21:14:33.534Z,19.55
2023-05-25T21:17:02.570Z,19.60
2023-05-25T21:19:30.470Z,20.13
2023-05-25T21:21:58.139Z,19.73
2023-05-25T21:24:25.859Z,19.98
2023-05-25T21:26:53.497Z,20.35
2023-05-25T21:29:21.516Z,20.73
2023-05-25T21:31:49.292Z,21.65
2023-05-25T21:34:18.406Z,20.20
2023-05-25T21:36:46.057Z,21.13
2023-05-25T21:39:13.644Z,20.58
2023-05-25T21:41:41.622Z,21.50
2023-05-25T21:44:09.238Z,20.83
2023-05-25T21:46:37.989Z,19.90
2023-05-25T21:49:05.642Z,20.20
2023-05-25T21:51:34.647Z,20.60
2023-05-25T21:54:02.385Z,19.17
2023-05-25T21:56:30.049Z,22.20
2023-05-25T21:58:57.670Z,19.55
2023-05-25T22:01:25.484Z,20.08
2023-05-25T22:03:53.185Z,20.23
2023-05-25T22:06:20.831Z,20.92
2023-05-25T22:08:49.814Z,20.63
2023-05-25T22:11:17.443Z,20.38
2023-05-25T22:13:45.065Z,19.88
2023-05-25T22:16:12.711Z,20.42
2023-05-25T22:18:40.343Z,20.88
2023-05-25T22:21:07.973Z,21.70
2023-05-25T22:23:35.895Z,19.70
2023-05-25T22:26:05.616Z,20.65
2023-05-25T22:28:33.398Z,21.42
2023-05-25T22:31:01.123Z,20.15
2023-05-25T22:33:28.779Z,20.67
2023-05-25T22:35:56.461Z,19.55
2023-05-25T22:38:24.088Z,19.95
2023-05-25T22:40:51.714Z,19.85
2023-05-25T22:43:20.682Z,20.20
2023-05-25T22:45:48.309Z,19.35
2023-05-25T22:48:15.914Z,20.40
2023-05-25T22:50:43.533Z,19.45
2023-05-25T22:53:11.189Z,19.65
2023-05-25T22:55:38.878Z,19.75
2023-05-25T22:58:06.490Z,19.35
2023-05-25T23:00:35.464Z,19.35
2023-05-25T23:03:04.525Z,19.25
2023-05-25T23:05:32.328Z,18.58
2023-05-25T23:07:59.926Z,20.45
2023-05-25T23:10:27.539Z,18.83
2023-05-25T23:12:56.227Z,19.00
2023-05-25T23:15:23.884Z,19.65
2023-05-25T23:17:52.853Z,18.98
2023-05-25T23:20:20.639Z,20.02
2023-05-25T23:22:48.769Z,18.42
2023-05-25T23:25:16.540Z,19.08
2023-05-25T23:27:44.121Z,19.73
2023-05-25T23:30:12.636Z,18.58
2023-05-25T23:32:40.313Z,19.20
2023-05-25T23:35:10.378Z,18.17
2023-05-25T23:37:38.031Z,18.38
2023-05-25T23:40:06.731Z,20.13
2023-05-25T23:42:39.198Z,19.73
2023-05-25T23:45:09.798Z,19.60
2023-05-25T23:47:37.425Z,20.30
2023-05-25T23:50:05.426Z,20.15
2023-05-25T23:52:34.462Z,21.55
2023-05-25T23:55:02.070Z,20.13
2023-05-25T23:57:29.666Z,20.75
2023-05-25T23:59:57.335Z,20.90
